createdAt,value
2023-05-15T00:01:13.644Z,61.08
2023-05-15T00:03:45.503Z,61.02
2023-05-15T00:06:20.193Z,60.39
2023-05-15T00:08:51.904Z,60.11
2023-05-15T00:11:23.647Z,60.04
2023-05-15T00:13:55.458Z,60.31
2023-05-15T00:16:27.083Z,60.67
2023-05-15T00:18:58.830Z,60.67
2023-05-15T00:21:31.080Z,60.54
2023-05-15T00:24:02.772Z,60.82
2023-05-15T00:26:34.566Z,61.13
2023-05-15T00:29:06.126Z,61.62
2023-05-15T00:31:37.791Z,60.73
2023-05-15T00:34:09.438Z,60.45
2023-05-15T00:36:41.093Z,61.09
2023-05-15T00:39:12.839Z,60.84
2023-05-15T00:41:46.429Z,61.70
2023-05-15T00:44:20.332Z,62.00
2023-05-15T00:46:53.185Z,61.72
2023-05-15T00:49:27.689Z,62.18
2023-05-15T00:52:02.071Z,61.92
2023-05-15T00:54:33.852Z,61.33
2023-05-15T00:57:06.536Z,61.03
2023-05-15T00:59:40.329Z,60.68
2023-05-15T01:02:15.958Z,60.84
2023-05-15T01:04:47.646Z,60.78
2023-05-15T01:07:19.266Z,60.38
2023-05-15T01:09:52.802Z,60.08
2023-05-15T01:12:27.030Z,59.98
2023-05-15T01:14:58.856Z,59.88
2023-05-15T01:17:31.302Z,60.51
2023-05-15T01:20:09.421Z,59.76
2023-05-15T01:23:12.396Z,60.11
2023-05-15T01:26:13.317Z,59.19
2023-05-15T01:28:57.407Z,59.50
2023-05-15T01:31:32.805Z,59.70
2023-05-15T01:34:09.426Z,59.34
2023-05-15T01:36:51.461Z,58.86
2023-05-15T01:39:27.821Z,59.21
2023-05-15T01:42:08.030Z,59.14
2023-05-15T01:44:56.789Z,59.29
2023-05-15T01:47:44.027Z,60.21
2023-05-15T01:50:20.163Z,60.05
2023-05-15T01:52:56.609Z,59.59
2023-05-15T01:55:30.488Z,59.72
2023-05-15T01:58:04.343Z,59.47
2023-05-15T02:00:36.653Z,59.70
2023-05-15T02:03:08.793Z,59.95
2023-05-15T02:05:41.886Z,60.18
2023-05-15T02:08:14.005Z,60.04
2023-05-15T02:10:46.439Z,60.98
2023-05-15T02:13:18.527Z,61.20
2023-05-15T02:15:50.142Z,61.35
2023-05-15T02:18:22.213Z,61.29
2023-05-15T02:20:56.896Z,60.67
2023-05-15T02:23:28.921Z,60.45
2023-05-15T02:26:21.619Z,60.18
2023-05-15T02:28:59.229Z,61.07
2023-05-15T02:31:45.432Z,60.87
2023-05-15T02:34:39.448Z,61.38
2023-05-15T02:37:18.276Z,60.82
2023-05-15T02:39:54.429Z,61.12
2023-05-15T02:42:31.220Z,60.94
2023-05-15T02:45:08.130Z,60.58
2023-05-15T02:47:41.005Z,60.30
2023-05-15T02:50:12.748Z,60.42
2023-05-15T02:52:44.446Z,61.64
2023-05-15T02:55:16.238Z,61.20
2023-05-15T02:57:50.002Z,61.48
2023-05-15T03:00:22.482Z,61.06
2023-05-15T03:02:54.106Z,62.04
2023-05-15T03:05:27.027Z,61.30
2023-05-15T03:08:00.598Z,62.21
2023-05-15T03:10:32.179Z,61.53
2023-05-15T03:13:03.828Z,60.69
2023-05-15T03:15:35.422Z,60.53
2023-05-15T03:18:07.044Z,60.90
2023-05-15T03:20:38.678Z,61.37
2023-05-15T03:23:10.308Z,61.74
2023-05-15T03:25:41.857Z,60.89
2023-05-15T03:28:13.527Z,60.71
2023-05-15T03:30:45.514Z,60.44
2023-05-15T03:33:17.125Z,61.07
2023-05-15T03:35:48.816Z,61.41
2023-05-15T03:38:20.452Z,61.14
2023-05-15T03:40:52.234Z,60.98
2023-05-15T03:43:24.164Z,60.96
2023-05-15T03:45:55.892Z,60.81
2023-05-15T03:48:27.552Z,60.42
2023-05-15T03:50:59.317Z,60.98
2023-05-15T03:53:30.950Z,60.72
2023-05-15T03:56:03.556Z,60.27
2023-05-15T03:58:35.090Z,60.39
2023-05-15T04:01:08.112Z,60.96
2023-05-15T04:03:39.762Z,60.28
2023-05-15T04:06:14.430Z,60.33
2023-05-15T04:08:46.021Z,60.34
2023-05-15T04:11:19.983Z,59.92
2023-05-15T04:13:51.571Z,59.79
2023-05-15T04:16:23.281Z,59.75
2023-05-15T04:18:54.888Z,59.47
2023-05-15T04:21:26.436Z,59.30
2023-05-15T04:23:58.102Z,58.83
2023-05-15T04:26:29.861Z,58.84
2023-05-15T04:29:04.480Z,58.30
2023-05-15T04:31:36.643Z,58.92
2023-05-15T04:34:08.211Z,57.93
2023-05-15T04:36:40.841Z,58.51
2023-05-15T04:39:14.438Z,58.21
2023-05-15T04:41:46.582Z,57.74
2023-05-15T04:44:18.168Z,57.82
2023-05-15T04:46:52.416Z,58.39
2023-05-15T04:49:24.096Z,57.92
2023-05-15T04:51:55.672Z,58.47
2023-05-15T04:54:29.803Z,57.51
2023-05-15T04:57:01.625Z,57.65
2023-05-15T04:59:33.480Z,58.06
2023-05-15T05:02:05.264Z,57.59
2023-05-15T05:04:36.885Z,58.08
2023-05-15T05:07:08.448Z,57.97
2023-05-15T05:09:40.601Z,58.12
2023-05-15T05:12:15.296Z,57.77
2023-05-15T05:14:49.801Z,57.10
2023-05-15T05:17:21.370Z,57.30
2023-05-15T05:19:52.953Z,57.57
2023-05-15T05:22:24.604Z,58.01
2023-05-15T05:24:56.292Z,57.18
2023-05-15T05:27:27.941Z,56.93
2023-05-15T05:30:00.500Z,57.08
2023-05-15T05:32:32.095Z,56.78
2023-05-15T05:35:04.236Z,56.23
2023-05-15T05:37:36.647Z,56.69
2023-05-15T05:40:10.774Z,56.43
2023-05-15T05:42:42.477Z,55.92
2023-05-15T05:45:17.044Z,55.40
2023-05-15T05:47:48.692Z,54.95
2023-05-15T05:50:20.467Z,56.43
2023-05-15T05:52:52.062Z,55.05
2023-05-15T05:55:23.865Z,55.74
2023-05-15T05:57:55.784Z,55.97
2023-05-15T06:00:27.604Z,55.55
2023-05-15T06:03:00.101Z,54.98
2023-05-15T06:05:31.997Z,54.64
2023-05-15T06:08:04.395Z,55.37
2023-05-15T06:10:38.421Z,55.94
2023-05-15T06:13:10.054Z,55.20
2023-05-15T06:15:42.494Z,55.41
2023-05-15T06:18:14.618Z,55.36
2023-05-15T06:20:49.412Z,55.88
2023-05-15T06:23:23.655Z,55.90
2023-05-15T06:25:56.018Z,56.57
2023-05-15T06:28:28.140Z,55.61
2023-05-15T06:30:59.851Z,55.61
2023-05-15T06:33:31.580Z,55.16
2023-05-15T06:36:03.267Z,55.75
2023-05-15T06:38:35.040Z,55.58
2023-05-15T06:41:06.655Z,54.14
2023-05-15T06:43:38.548Z,54.04
2023-05-15T06:46:10.313Z,54.05
2023-05-15T06:48:41.897Z,54.89
2023-05-15T06:51:13.840Z,55.61
2023-05-15T06:53:45.447Z,55.43
2023-05-15T06:56:16.994Z,55.43
2023-05-15T06:58:48.576Z,56.36
2023-05-15T07:01:20.193Z,57.23
2023-05-15T07:03:54.592Z,56.89
2023-05-15T07:06:26.567Z,56.11
2023-05-15T07:09:01.619Z,55.24
2023-05-15T07:11:37.385Z,55.99
2023-05-15T07:14:09.004Z,56.02
2023-05-15T07:16:40.974Z,54.85
2023-05-15T07:19:12.806Z,56.69
2023-05-15T07:21:44.453Z,55.76
2023-05-15T07:24:16.055Z,54.47
2023-05-15T07:26:58.167Z,55.97
2023-05-15T07:29:30.999Z,55.08
2023-05-15T07:32:02.748Z,55.14
2023-05-15T07:34:34.472Z,55.49
2023-05-15T07:37:06.076Z,54.99
2023-05-15T07:39:38.946Z,54.72
2023-05-15T07:42:10.862Z,55.46
2023-05-15T07:44:44.610Z,55.24
2023-05-15T07:47:17.735Z,53.48
2023-05-15T07:49:49.357Z,53.92
2023-05-15T07:52:20.968Z,52.87
2023-05-15T07:54:52.591Z,53.30
2023-05-15T07:57:25.558Z,54.85
2023-05-15T07:59:57.302Z,53.03
2023-05-15T08:02:28.945Z,56.03
2023-05-15T08:05:00.690Z,55.25
2023-05-15T08:07:33.787Z,56.42
2023-05-15T08:10:07.066Z,54.81
2023-05-15T08:12:38.637Z,55.55
2023-05-15T08:15:10.713Z,56.93
2023-05-15T08:17:42.653Z,57.14
2023-05-15T08:20:14.477Z,57.44
2023-05-15T08:22:46.074Z,57.99
2023-05-15T08:25:17.790Z,60.12
2023-05-15T08:27:49.369Z,60.38
2023-05-15T08:30:21.437Z,58.68
2023-05-15T08:32:53.146Z,58.82
2023-05-15T08:35:25.087Z,59.47
2023-05-15T08:37:58.564Z,58.03
2023-05-15T08:40:39.021Z,59.39
2023-05-15T08:43:18.003Z,58.40
2023-05-15T08:45:50.151Z,59.31
2023-05-15T08:48:26.022Z,59.00
2023-05-15T08:50:59.676Z,57.53
2023-05-15T08:53:31.813Z,59.25
2023-05-15T08:56:06.489Z,59.92
2023-05-15T08:58:38.449Z,59.83
2023-05-15T09:01:13.206Z,58.96
2023-05-15T09:03:45.285Z,59.86
2023-05-15T09:06:18.306Z,61.02
2023-05-15T09:08:50.805Z,61.29
2023-05-15T09:11:25.444Z,59.99
2023-05-15T09:14:00.966Z,58.71
2023-05-15T09:16:32.596Z,58.80
2023-05-15T09:19:13.653Z,58.94
2023-05-15T09:21:45.243Z,59.47
2023-05-15T09:24:25.344Z,59.53
2023-05-15T09:27:08.849Z,60.04
2023-05-15T09:29:40.729Z,59.37
2023-05-15T09:32:15.324Z,59.00
2023-05-15T09:34:47.063Z,57.87
2023-05-15T09:37:31.431Z,58.04
2023-05-15T09:40:11.783Z,57.07
2023-05-15T09:42:52.103Z,57.09
2023-05-15T09:45:26.876Z,55.87
2023-05-15T09:48:07.013Z,55.79
2023-05-15T09:50:41.083Z,57.09
2023-05-15T09:53:14.020Z,57.19
2023-05-15T09:55:47.747Z,55.14
2023-05-15T09:58:19.817Z,54.81
2023-05-15T10:00:51.457Z,54.02
2023-05-15T10:03:23.524Z,51.94
2023-05-15T10:06:04.868Z,58.22
2023-05-15T10:08:37.295Z,56.35
2023-05-15T10:11:09.100Z,52.85
2023-05-15T10:13:40.910Z,50.17
2023-05-15T10:16:14.667Z,48.24
2023-05-15T10:18:47.395Z,51.03
2023-05-15T10:21:20.801Z,50.84
2023-05-15T10:24:02.057Z,50.00
2023-05-15T10:26:42.899Z,45.61
2023-05-15T10:29:18.416Z,52.00
2023-05-15T10:31:52.100Z,47.22
2023-05-15T10:34:25.175Z,45.79
2023-05-15T10:36:57.346Z,45.59
2023-05-15T10:39:29.716Z,49.63
2023-05-15T10:42:02.326Z,43.33
2023-05-15T10:44:36.031Z,42.56
2023-05-15T10:47:08.683Z,42.82
2023-05-15T10:49:40.377Z,42.79
2023-05-15T10:52:12.060Z,41.72
2023-05-15T10:54:43.706Z,41.96
2023-05-15T10:57:15.710Z,46.91
2023-05-15T10:59:50.756Z,47.57
2023-05-15T11:02:29.796Z,46.80
2023-05-15T11:05:04.067Z,47.30
2023-05-15T11:07:35.647Z,45.14
2023-05-15T11:10:28.698Z,41.33
2023-05-15T11:13:02.728Z,42.01
2023-05-15T11:15:45.998Z,39.32
2023-05-15T11:18:18.092Z,41.96
2023-05-15T11:20:49.699Z,45.10
2023-05-15T11:23:25.566Z,45.04
2023-05-15T11:25:57.701Z,47.10
2023-05-15T11:28:30.801Z,46.68
2023-05-15T11:31:07.017Z,50.42
2023-05-15T11:33:40.633Z,45.70
2023-05-15T11:36:15.890Z,43.62
2023-05-15T11:38:50.946Z,44.70
2023-05-15T11:41:24.978Z,44.77
2023-05-15T11:43:57.205Z,47.40
2023-05-15T11:46:30.530Z,40.04
2023-05-15T11:49:02.481Z,39.21
2023-05-15T11:51:35.470Z,43.43
2023-05-15T11:54:08.148Z,46.49
2023-05-15T11:56:47.284Z,44.39
2023-05-15T12:02:07.013Z,43.24
2023-05-15T12:04:38.562Z,46.72
2023-05-15T12:07:12.132Z,46.39
2023-05-15T12:09:44.144Z,43.04
2023-05-15T12:12:15.788Z,40.63
2023-05-15T12:14:47.344Z,37.14
2023-05-15T12:17:18.917Z,39.36
2023-05-15T12:19:52.178Z,40.13
2023-05-15T12:22:23.801Z,38.45
2023-05-15T12:24:58.979Z,44.10
2023-05-15T12:27:30.729Z,44.05
2023-05-15T12:30:06.163Z,49.19
2023-05-15T12:32:38.927Z,47.29
2023-05-15T12:35:12.125Z,43.04
2023-05-15T12:37:43.720Z,43.97
2023-05-15T12:40:15.512Z,46.97
2023-05-15T12:42:54.204Z,44.07
2023-05-15T12:45:33.060Z,36.57
2023-05-15T12:48:05.865Z,37.49
2023-05-15T12:50:37.631Z,44.43
2023-05-15T12:53:21.629Z,44.28
2023-05-15T12:55:53.202Z,40.33
2023-05-15T12:58:24.870Z,40.17
2023-05-15T13:00:57.310Z,37.10
2023-05-15T13:03:29.658Z,34.98
2023-05-15T13:06:07.185Z,41.02
2023-05-15T13:08:42.388Z,40.77
2023-05-15T13:11:14.679Z,42.86
2023-05-15T13:13:49.387Z,44.17
2023-05-15T13:16:26.753Z,41.62
2023-05-15T13:18:58.943Z,40.20
2023-05-15T13:21:31.255Z,39.12
2023-05-15T13:24:02.889Z,40.79
2023-05-15T13:26:41.612Z,40.76
2023-05-15T13:29:13.168Z,42.53
2023-05-15T13:31:44.850Z,41.55
2023-05-15T13:34:16.416Z,44.04
2023-05-15T13:36:48.067Z,43.33
2023-05-15T13:39:19.642Z,38.04
2023-05-15T13:41:53.287Z,40.55
2023-05-15T13:44:24.861Z,41.14
2023-05-15T13:46:56.584Z,35.68
2023-05-15T13:49:28.379Z,33.88
2023-05-15T13:52:00.149Z,31.78
2023-05-15T13:54:32.171Z,31.14
2023-05-15T13:57:04.101Z,31.84
2023-05-15T13:59:35.810Z,35.24
2023-05-15T14:02:07.370Z,38.85
2023-05-15T14:04:39.000Z,42.25
2023-05-15T14:07:13.308Z,42.51
2023-05-15T14:09:44.908Z,44.34
2023-05-15T14:12:16.513Z,45.24
2023-05-15T14:14:48.569Z,48.77
2023-05-15T14:17:22.256Z,52.43
2023-05-15T14:19:53.989Z,62.85
2023-05-15T14:22:25.636Z,70.18
2023-05-15T14:24:57.253Z,69.84
2023-05-15T14:27:28.956Z,73.00
2023-05-15T14:30:01.072Z,73.45
2023-05-15T14:32:32.743Z,73.25
2023-05-15T14:35:04.963Z,72.54
2023-05-15T14:37:37.633Z,74.97
2023-05-15T14:40:10.235Z,75.75
2023-05-15T14:42:41.788Z,73.84
2023-05-15T14:45:13.370Z,73.39
2023-05-15T14:47:45.017Z,73.68
2023-05-15T14:50:16.641Z,74.83
2023-05-15T14:52:48.319Z,71.93
2023-05-15T14:55:23.280Z,71.37
2023-05-15T14:57:54.861Z,71.12
2023-05-15T15:00:27.013Z,72.29
2023-05-15T15:02:59.486Z,72.07
2023-05-15T15:05:31.445Z,70.44
2023-05-15T15:08:08.862Z,69.01
2023-05-15T15:10:41.113Z,71.90
2023-05-15T15:13:14.014Z,70.12
2023-05-15T15:15:46.652Z,67.83
2023-05-15T15:18:18.464Z,68.70
2023-05-15T15:20:50.103Z,68.28
2023-05-15T15:23:21.715Z,66.83
2023-05-15T15:25:53.379Z,67.48
2023-05-15T15:28:26.287Z,66.98
2023-05-15T15:30:57.824Z,66.63
2023-05-15T15:33:29.439Z,67.17
2023-05-15T15:36:01.091Z,63.71
2023-05-15T15:38:32.737Z,63.14
2023-05-15T15:41:05.662Z,64.14
2023-05-15T15:43:37.237Z,63.72
2023-05-15T15:46:08.962Z,58.40
2023-05-15T15:48:40.730Z,61.67
2023-05-15T15:51:13.920Z,62.05
2023-05-15T15:53:45.517Z,61.25
2023-05-15T15:56:20.063Z,63.46
2023-05-15T15:58:51.802Z,60.15
2023-05-15T16:01:28.273Z,59.93
2023-05-15T16:04:00.201Z,54.72
2023-05-15T16:06:33.713Z,55.50
2023-05-15T16:09:05.512Z,52.42
2023-05-15T16:11:37.128Z,54.55
2023-05-15T16:14:08.856Z,53.79
2023-05-15T16:16:40.696Z,56.05
2023-05-15T16:19:13.787Z,52.90
2023-05-15T16:21:45.490Z,57.95
2023-05-15T16:24:20.226Z,58.29
2023-05-15T16:26:55.419Z,58.20
2023-05-15T16:29:26.986Z,62.05
2023-05-15T16:31:58.888Z,64.31
2023-05-15T16:34:30.592Z,61.50
2023-05-15T16:37:02.219Z,58.71
2023-05-15T16:39:39.640Z,63.09
2023-05-15T16:42:14.238Z,60.08
2023-05-15T16:44:45.806Z,62.28
2023-05-15T16:47:17.602Z,62.10
2023-05-15T16:49:50.271Z,65.62
2023-05-15T16:52:22.334Z,63.81
2023-05-15T16:54:53.963Z,61.11
2023-05-15T16:57:26.159Z,63.48
2023-05-15T16:59:57.771Z,63.60
2023-05-15T17:02:29.445Z,62.56
2023-05-15T17:05:03.226Z,64.89
2023-05-15T17:07:36.466Z,65.23
2023-05-15T17:10:09.677Z,64.41
2023-05-15T17:12:41.330Z,66.46
2023-05-15T17:15:15.905Z,65.46
2023-05-15T17:17:47.438Z,66.00
2023-05-15T17:20:19.146Z,66.80
2023-05-15T17:22:51.238Z,67.83
2023-05-15T17:25:23.091Z,64.98
2023-05-15T17:27:55.143Z,67.93
2023-05-15T17:30:27.020Z,68.00
2023-05-15T17:33:00.358Z,66.39
2023-05-15T17:35:33.183Z,66.38
2023-05-15T17:38:05.096Z,65.38
2023-05-15T17:40:36.671Z,66.82
2023-05-15T17:43:10.269Z,67.06
2023-05-15T17:45:41.974Z,67.66
2023-05-15T17:48:13.562Z,67.45
2023-05-15T17:50:45.166Z,68.28
2023-05-15T17:53:16.928Z,68.29
2023-05-15T17:55:48.764Z,69.80
2023-05-15T17:58:21.289Z,70.01
2023-05-15T18:00:53.044Z,69.18
2023-05-15T18:03:24.796Z,68.91
2023-05-15T18:05:59.898Z,68.74
2023-05-15T18:08:31.548Z,68.67
2023-05-15T18:11:11.101Z,68.94
2023-05-15T18:13:49.475Z,68.70
2023-05-15T18:16:21.336Z,69.30
2023-05-15T18:18:53.079Z,70.78
2023-05-15T18:21:25.563Z,70.88
2023-05-15T18:23:57.205Z,70.01
2023-05-15T18:26:31.160Z,70.61
2023-05-15T18:29:03.403Z,69.99
2023-05-15T18:31:35.949Z,69.85
2023-05-15T18:34:07.707Z,70.16
2023-05-15T18:36:39.367Z,70.27
2023-05-15T18:39:11.123Z,71.26
2023-05-15T18:41:42.828Z,71.32
2023-05-15T18:44:14.414Z,73.15
2023-05-15T18:46:46.430Z,73.05
2023-05-15T18:49:18.203Z,72.68
2023-05-15T18:51:49.776Z,72.88
2023-05-15T18:54:21.467Z,72.32
2023-05-15T18:56:53.235Z,72.58
2023-05-15T18:59:24.953Z,71.14
2023-05-15T19:01:56.718Z,70.50
2023-05-15T19:04:28.331Z,70.15
2023-05-15T19:06:59.918Z,70.02
2023-05-15T19:09:31.718Z,70.42
2023-05-15T19:12:03.382Z,69.88
2023-05-15T19:14:35.044Z,69.34
2023-05-15T19:17:07.459Z,70.08
2023-05-15T19:19:39.212Z,70.16
2023-05-15T19:22:10.916Z,69.70
2023-05-15T19:24:42.707Z,69.90
2023-05-15T19:27:16.547Z,69.33
2023-05-15T19:29:48.172Z,68.25
2023-05-15T19:32:20.151Z,68.67
2023-05-15T19:34:56.892Z,70.72
2023-05-15T19:37:29.105Z,71.22
2023-05-15T19:40:00.755Z,70.87
2023-05-15T19:42:32.605Z,70.40
2023-05-15T19:45:04.834Z,70.52
2023-05-15T19:47:45.351Z,70.96
2023-05-15T19:50:18.308Z,71.53
2023-05-15T19:52:49.901Z,71.30
2023-05-15T19:55:21.611Z,70.48
2023-05-15T19:57:58.453Z,71.17
2023-05-15T20:00:30.204Z,71.02
2023-05-15T20:03:04.988Z,69.84
2023-05-15T20:05:42.594Z,69.14
2023-05-15T20:08:15.310Z,69.01
2023-05-15T20:10:52.269Z,68.65
2023-05-15T20:13:24.040Z,70.17
2023-05-15T20:15:58.181Z,70.23
2023-05-15T20:18:32.181Z,70.14
2023-05-15T20:21:06.651Z,71.30
2023-05-15T20:23:38.817Z,71.50
2023-05-15T20:26:11.737Z,71.56
2023-05-15T20:28:45.158Z,71.35
2023-05-15T20:31:19.905Z,71.19
2023-05-15T20:33:51.549Z,70.77
2023-05-15T20:36:25.537Z,70.65
2023-05-15T20:38:57.201Z,70.08
2023-05-15T20:41:29.361Z,70.21
2023-05-15T20:44:01.359Z,69.90
2023-05-15T20:46:33.272Z,70.30
2023-05-15T20:49:05.057Z,70.43
2023-05-15T20:51:36.667Z,70.06
2023-05-15T20:54:08.274Z,71.09
2023-05-15T20:56:43.102Z,71.45
2023-05-15T20:59:14.804Z,70.45
2023-05-15T21:01:49.225Z,71.06
2023-05-15T21:04:20.837Z,70.77
2023-05-15T21:06:52.579Z,70.89
2023-05-15T21:09:27.258Z,71.12
2023-05-15T21:11:59.844Z,71.25
2023-05-15T21:14:31.519Z,71.73
2023-05-15T21:17:03.135Z,71.92
2023-05-15T21:19:34.772Z,72.47
2023-05-15T21:22:06.941Z,72.09
2023-05-15T21:24:38.657Z,71.78
2023-05-15T21:27:10.709Z,71.35
2023-05-15T21:29:42.410Z,71.37
2023-05-15T21:32:16.392Z,70.57
2023-05-15T21:34:48.024Z,70.55
2023-05-15T21:37:19.694Z,70.21
2023-05-15T21:39:51.273Z,70.31
2023-05-15T21:42:22.836Z,71.11
2023-05-15T21:44:57.924Z,71.53
2023-05-15T21:47:29.458Z,71.62
2023-05-15T21:50:01.302Z,71.97
2023-05-15T21:52:32.967Z,71.81
2023-05-15T21:55:05.128Z,70.90
2023-05-15T21:57:36.699Z,70.57
2023-05-15T22:00:09.231Z,70.52
2023-05-15T22:02:40.924Z,70.55
2023-05-15T22:05:12.938Z,70.71
2023-05-15T22:07:44.635Z,70.60
2023-05-15T22:10:16.684Z,70.92
2023-05-15T22:12:48.352Z,71.04
2023-05-15T22:15:20.075Z,71.46
2023-05-15T22:17:51.794Z,71.08
2023-05-15T22:20:23.686Z,71.85
2023-05-15T22:22:55.633Z,71.46
2023-05-15T22:25:27.278Z,71.27
2023-05-15T22:27:58.903Z,70.94
2023-05-15T22:30:30.714Z,71.46
2023-05-15T22:33:02.442Z,70.95
2023-05-15T22:35:34.203Z,71.14
2023-05-15T22:38:07.305Z,71.57
2023-05-15T22:40:38.944Z,71.46
2023-05-15T22:43:10.636Z,71.44
2023-05-15T22:45:42.272Z,71.61
2023-05-15T22:48:15.431Z,71.59
2023-05-15T22:50:47.621Z,70.76
2023-05-15T22:53:21.515Z,70.52
2023-05-15T22:55:53.101Z,70.62
2023-05-15T22:58:24.786Z,69.98
2023-05-15T23:00:56.575Z,69.82
2023-05-15T23:03:31.509Z,70.53
2023-05-15T23:06:03.217Z,70.27
2023-05-15T23:08:34.768Z,69.41
2023-05-15T23:11:06.360Z,68.95
2023-05-15T23:13:37.936Z,69.27
2023-05-15T23:16:12.487Z,69.43
2023-05-15T23:18:44.295Z,69.39
2023-05-15T23:21:15.928Z,69.20
2023-05-15T23:23:48.330Z,69.16
2023-05-15T23:26:20.088Z,69.71
2023-05-15T23:28:51.869Z,70.33
2023-05-15T23:31:23.594Z,69.80
2023-05-15T23:33:55.323Z,70.29
2023-05-15T23:36:27.103Z,69.82
2023-05-15T23:38:58.919Z,69.60
2023-05-15T23:41:30.681Z,69.96
2023-05-15T23:44:05.068Z,69.91
2023-05-15T23:46:38.353Z,70.21
2023-05-15T23:49:10.053Z,70.63
2023-05-15T23:51:41.698Z,70.85
2023-05-15T23:54:13.234Z,70.87
2023-05-15T23:56:45.377Z,70.99
2023-05-15T23:59:16.955Z,71.55
